Levelock, Alaska
Current Conditions -  °F | °C
As of 12:56 PM on Sunday 21 Dec 2014 (Local Time) from PFWS Reporting Station
Clear Clear  
Wind Chill:   Ceiling: Unl
Heat Index: 14°   Visibility: 10mi
Dew Point:   Wind: 7mph
Humidity: 80%   Direction: 10°N
Pressure: 29.32"   Gusts: NA
Location:  59.11°N, 156.87°W
Report Text: PFWS 212156Z AUTO 01006KT 10SM CLR M10/M13 A2932 RMK AO2 SLP935 T11001128 FZRANO
Loading
Personal Weather Stations






























Interactive Weather Map New forecast layout! Learn more

10-Day Weather Forecast

Advertisements
Track Severe Weather on mobile